ODE weather

Public forecast

Using degrees Celsius for public forecast. Weather courtesy of forecast.io.

Current aviation weather report (METAR) for Odense Airport

Report is more than 6 hours old.

Retrieved 2020/08/13 15:50 UTC (7 hours ago):

EKOD 131550Z 08009KT 050V110 CAVOK 26/10 Q1016

Closest aviation forecast (TAF) to Odense Airport

Forecast is more than 12 hours old.

Closest forecast is S√łnderborg Airport, 35.9 nm (66.4 km) SSW. Retrieved 2016/01/27 09:03 UTC (5 years ago):

TAF TAF EKSB 270856Z 2709/2721 23022KT 5000 -RA BR BKN008 TEMPO 2709/2721 24025G40KT 2000 RADZ BKN004